Time;durP1;ratioP1;P1;durP2;ratioP2;P2;SDS_P1;SDS_P2;PMS_P1;PMS_P2;Temp;Humidity;BMP_temperature;BMP_pressure;BME280_temperature;BME280_humidity;BME280_pressure;Samples;Min_cycle;Max_cycle;Signal;HPM_P1;HPM_P2
2021/09/26 00:00:12;;;;;;;12.00;11.00;;;;;;;;;;5125036;27;24812;-59
2021/09/26 00:02:37;;;;;;;11.35;10.55;;;;;;;;;;5129192;27;24476;-60
2021/09/26 00:05:03;;;;;;;11.60;10.70;;;;;;;;;;5129662;27;24413;-60
2021/09/26 00:07:29;;;;;;;10.55;9.75;;;;;;;;;;5128725;27;24573;-60
2021/09/26 00:09:54;;;;;;;12.03;11.13;;;;;;;;;;5129631;27;25031;-59
2021/09/26 00:12:19;;;;;;;11.30;10.40;;;;;;;;;;5128806;27;24413;-60
2021/09/26 00:14:45;;;;;;;10.40;9.60;;;;;;;;;;5128821;27;24428;-59
2021/09/26 00:17:10;;;;;;;10.55;9.75;;;;;;;;;;5130219;27;24477;-59
2021/09/26 00:19:35;;;;;;;11.60;10.70;;;;;;;;;;5129139;27;24956;-60
2021/09/26 00:22:00;;;;;;;11.10;10.30;;;;;;;;;;5129206;27;24396;-60
2021/09/26 00:24:25;;;;;;;11.70;10.75;;;;;;;;;;5126417;27;24416;-60
2021/09/26 00:26:50;;;;;;;11.60;10.80;;;;;;;;;;5129961;27;24728;-59
2021/09/26 00:29:16;;;;;;;11.82;10.90;;;;;;;;;;5125829;27;24451;-59
2021/09/26 00:31:41;;;;;;;10.50;9.70;;;;;;;;;;5121539;27;24413;-59
2021/09/26 00:34:06;;;;;;;11.50;10.60;;;;;;;;;;5116561;27;24494;-59
2021/09/26 00:36:31;;;;;;;10.90;10.10;;;;;;;;;;5116924;27;24565;-60
2021/09/26 00:38:56;;;;;;;11.00;10.20;;;;;;;;;;5127887;27;24411;-60
2021/09/26 00:41:22;;;;;;;11.30;10.50;;;;;;;;;;5118082;27;24424;-60
2021/09/26 00:43:47;;;;;;;10.98;10.07;;;;;;;;;;5128329;27;24477;-60
2021/09/26 00:46:12;;;;;;;11.40;10.50;;;;;;;;;;5129175;27;24500;-60
2021/09/26 00:48:37;;;;;;;11.50;10.60;;;;;;;;;;5123460;27;24803;-59
2021/09/26 00:51:09;;;;;;;11.50;10.60;;;;;;;;;;5128629;27;24547;-59
2021/09/26 00:53:34;;;;;;;11.40;10.60;;;;;;;;;;5119274;27;24465;-60
2021/09/26 00:56:00;;;;;;;11.00;10.20;;;;;;;;;;5112569;27;24447;-59
2021/09/26 00:58:25;;;;;;;10.50;9.80;;;;;;;;;;5127525;27;24409;-59
2021/09/26 01:00:50;;;;;;;10.70;9.90;;;;;;;;;;5128705;27;24417;-59
2021/09/26 01:03:16;;;;;;;11.20;10.30;;;;;;;;;;5128579;27;24459;-59
2021/09/26 01:05:41;;;;;;;10.50;9.60;;;;;;;;;;5128161;27;24785;-59
2021/09/26 01:08:09;;;;;;;9.73;9.03;;;;;;;;;;5127930;27;24536;-60
2021/09/26 01:10:37;;;;;;;10.80;10.00;;;;;;;;;;5128129;27;24481;-60
2021/09/26 01:13:08;;;;;;;10.60;9.80;;;;;;;;;;5127461;27;24829;-60
2021/09/26 01:15:52;;;;;;;11.40;10.50;;;;;;;;;;5128010;27;24442;-60
2021/09/26 01:18:36;;;;;;;11.60;10.60;;;;;;;;;;5127545;27;24440;-60
2021/09/26 01:21:02;;;;;;;11.82;10.82;;;;;;;;;;5127623;27;24421;-60
2021/09/26 01:23:53;;;;;;;11.77;10.88;;;;;;;;;;5118648;27;24409;-60
2021/09/26 01:26:24;;;;;;;11.90;11.00;;;;;;;;;;5103305;27;24425;-60
2021/09/26 01:28:52;;;;;;;11.30;10.50;;;;;;;;;;5122312;27;26603;-60
2021/09/26 01:31:21;;;;;;;11.13;10.32;;;;;;;;;;5127817;27;24809;-60
2021/09/26 01:33:51;;;;;;;11.43;10.52;;;;;;;;;;5127289;27;24440;-60
2021/09/26 01:36:21;;;;;;;10.80;10.00;;;;;;;;;;5128525;27;24392;-60
2021/09/26 01:38:54;;;;;;;12.40;11.40;;;;;;;;;;5124109;27;24469;-60
2021/09/26 01:41:31;;;;;;;10.20;9.40;;;;;;;;;;5127476;27;24451;-60
2021/09/26 01:43:57;;;;;;;11.15;10.35;;;;;;;;;;5125531;27;24417;-60
2021/09/26 01:46:24;;;;;;;11.10;10.18;;;;;;;;;;5127599;27;24413;-60
2021/09/26 01:48:55;;;;;;;10.57;9.77;;;;;;;;;;5127654;27;24467;-59
2021/09/26 01:51:22;;;;;;;11.50;10.70;;;;;;;;;;5127047;27;24490;-60
2021/09/26 01:53:48;;;;;;;10.98;10.18;;;;;;;;;;5110291;27;24424;-60
2021/09/26 01:56:14;;;;;;;10.77;9.97;;;;;;;;;;5123200;27;24417;-60
2021/09/26 01:58:42;;;;;;;12.68;11.68;;;;;;;;;;5127172;27;24458;-60
2021/09/26 02:01:08;;;;;;;10.70;9.90;;;;;;;;;;5127727;27;24518;-60
2021/09/26 02:03:34;;;;;;;10.83;10.03;;;;;;;;;;5112210;27;24513;-59
2021/09/26 02:06:00;;;;;;;11.95;10.95;;;;;;;;;;5124538;27;24552;-59
2021/09/26 02:08:25;;;;;;;10.63;9.83;;;;;;;;;;5126880;27;24946;-59
2021/09/26 02:10:51;;;;;;;11.20;10.30;;;;;;;;;;5127209;27;25039;-59
2021/09/26 02:13:16;;;;;;;10.83;10.03;;;;;;;;;;5127059;27;25044;-59
2021/09/26 02:15:45;;;;;;;11.67;10.87;;;;;;;;;;5126780;27;24420;-59
2021/09/26 02:18:10;;;;;;;11.17;10.37;;;;;;;;;;5125052;27;24895;-59
2021/09/26 02:20:36;;;;;;;11.00;10.10;;;;;;;;;;5124997;27;25044;-59
2021/09/26 02:23:02;;;;;;;12.35;11.35;;;;;;;;;;5126917;27;24505;-60
2021/09/26 02:25:27;;;;;;;10.50;9.70;;;;;;;;;;5121861;27;24518;-60
2021/09/26 02:27:53;;;;;;;10.50;9.80;;;;;;;;;;5121586;27;24974;-60
2021/09/26 02:30:18;;;;;;;10.63;9.83;;;;;;;;;;5126880;27;24478;-60
2021/09/26 02:32:44;;;;;;;12.35;11.32;;;;;;;;;;5126917;28;24454;-60
2021/09/26 02:35:10;;;;;;;11.15;10.35;;;;;;;;;;5124896;28;24422;-60
2021/09/26 02:37:35;;;;;;;11.70;10.80;;;;;;;;;;5125556;28;24448;-60
2021/09/26 02:40:01;;;;;;;11.37;10.47;;;;;;;;;;5112572;28;25209;-59
2021/09/26 02:42:46;;;;;;;11.15;10.35;;;;;;;;;;5115570;28;24420;-60
2021/09/26 02:45:13;;;;;;;11.20;10.30;;;;;;;;;;5125661;28;24512;-59
2021/09/26 02:47:49;;;;;;;11.45;10.65;;;;;;;;;;5126943;28;24416;-60
2021/09/26 02:50:16;;;;;;;10.73;9.93;;;;;;;;;;5111236;28;24440;-60
2021/09/26 02:52:41;;;;;;;10.90;9.90;;;;;;;;;;5117069;28;24416;-60
2021/09/26 02:55:07;;;;;;;10.67;9.87;;;;;;;;;;5107247;28;24417;-60
2021/09/26 02:57:34;;;;;;;10.98;10.18;;;;;;;;;;5127229;28;24374;-60
2021/09/26 02:59:59;;;;;;;10.90;10.00;;;;;;;;;;5126576;28;24439;-59
2021/09/26 03:02:29;;;;;;;10.90;10.10;;;;;;;;;;5126292;28;24530;-59
2021/09/26 03:04:54;;;;;;;12.15;11.25;;;;;;;;;;5119875;28;24589;-60
2021/09/26 03:07:19;;;;;;;10.88;10.07;;;;;;;;;;5126554;28;25318;-59
2021/09/26 03:09:44;;;;;;;12.02;11.02;;;;;;;;;;5126846;28;24421;-59
2021/09/26 03:12:19;;;;;;;10.95;10.15;;;;;;;;;;5126680;28;24421;-60
2021/09/26 03:14:45;;;;;;;11.45;10.55;;;;;;;;;;5124640;28;24776;-59
2021/09/26 03:17:10;;;;;;;11.85;10.95;;;;;;;;;;5127297;28;24405;-60
2021/09/26 03:19:36;;;;;;;10.90;10.10;;;;;;;;;;5125942;27;24524;-59
2021/09/26 03:22:01;;;;;;;12.43;11.48;;;;;;;;;;5130263;27;25001;-60
2021/09/26 03:24:27;;;;;;;12.60;11.60;;;;;;;;;;5126892;27;24420;-59
2021/09/26 03:26:53;;;;;;;10.60;9.80;;;;;;;;;;5130631;27;24416;-60
2021/09/26 03:29:18;;;;;;;11.40;10.50;;;;;;;;;;5128367;27;24447;-59
2021/09/26 03:31:43;;;;;;;11.23;10.43;;;;;;;;;;5129878;27;24790;-59
2021/09/26 03:34:08;;;;;;;11.10;10.30;;;;;;;;;;5126288;27;25028;-60
2021/09/26 03:36:33;;;;;;;11.40;10.60;;;;;;;;;;5110110;28;24450;-60
2021/09/26 03:38:58;;;;;;;11.33;10.53;;;;;;;;;;5126617;27;24456;-60
2021/09/26 03:41:23;;;;;;;11.80;10.90;;;;;;;;;;5119769;27;24470;-60
2021/09/26 03:43:49;;;;;;;11.27;10.38;;;;;;;;;;5127006;27;24547;-60
2021/09/26 03:46:14;;;;;;;11.47;10.57;;;;;;;;;;5130317;27;24427;-60
2021/09/26 03:48:39;;;;;;;10.80;10.00;;;;;;;;;;5124224;27;24551;-59
2021/09/26 03:51:04;;;;;;;10.83;10.03;;;;;;;;;;5121281;27;24426;-60
2021/09/26 03:53:29;;;;;;;10.33;9.63;;;;;;;;;;5113597;27;24769;-60
2021/09/26 03:55:54;;;;;;;10.73;9.93;;;;;;;;;;5118818;27;24405;-60
2021/09/26 03:58:20;;;;;;;10.85;9.98;;;;;;;;;;5111554;27;24903;-60
2021/09/26 04:00:45;;;;;;;10.10;9.30;;;;;;;;;;5128449;27;24409;-60
2021/09/26 04:03:10;;;;;;;10.47;9.57;;;;;;;;;;5122045;27;25020;-59
2021/09/26 04:05:35;;;;;;;10.90;10.10;;;;;;;;;;5128948;27;24421;-60
2021/09/26 04:08:00;;;;;;;10.33;9.60;;;;;;;;;;5114082;27;25015;-59
2021/09/26 04:10:25;;;;;;;10.20;9.40;;;;;;;;;;5127964;27;24425;-59
2021/09/26 04:12:51;;;;;;;10.27;9.57;;;;;;;;;;5128182;27;24521;-59
2021/09/26 04:15:18;;;;;;;10.40;9.50;;;;;;;;;;5128882;27;24417;-59
2021/09/26 04:17:43;;;;;;;10.10;9.40;;;;;;;;;;5128853;27;24938;-59
2021/09/26 04:20:08;;;;;;;9.70;9.00;;;;;;;;;;5120062;27;24485;-59
2021/09/26 04:22:34;;;;;;;10.77;9.87;;;;;;;;;;5128703;27;24725;-59
2021/09/26 04:24:59;;;;;;;9.90;9.10;;;;;;;;;;5129111;27;24473;-60
2021/09/26 04:27:24;;;;;;;10.40;9.50;;;;;;;;;;5128567;27;24926;-59
2021/09/26 04:29:49;;;;;;;9.20;8.60;;;;;;;;;;5129138;27;24501;-60
2021/09/26 04:32:15;;;;;;;10.20;9.40;;;;;;;;;;5123571;27;24470;-59
2021/09/26 04:34:40;;;;;;;8.87;8.27;;;;;;;;;;5128435;27;24506;-59
2021/09/26 04:37:08;;;;;;;9.90;9.20;;;;;;;;;;5113588;27;24426;-59
2021/09/26 04:39:33;;;;;;;10.70;9.80;;;;;;;;;;5118933;27;24428;-60
2021/09/26 04:41:58;;;;;;;9.60;8.90;;;;;;;;;;5120022;27;24432;-59
2021/09/26 04:44:23;;;;;;;9.20;8.60;;;;;;;;;;5127833;27;24571;-59
2021/09/26 04:46:48;;;;;;;9.23;8.53;;;;;;;;;;5128419;27;24439;-59
2021/09/26 04:49:14;;;;;;;10.40;9.60;;;;;;;;;;5128370;27;24435;-59
2021/09/26 04:51:39;;;;;;;9.63;8.93;;;;;;;;;;5126438;27;24458;-59
2021/09/26 04:54:04;;;;;;;9.97;9.27;;;;;;;;;;5113475;27;24414;-59
2021/09/26 04:56:29;;;;;;;10.70;9.80;;;;;;;;;;5109193;27;24437;-59
2021/09/26 04:58:55;;;;;;;10.70;9.90;;;;;;;;;;5128974;27;24427;-59
2021/09/26 05:01:20;;;;;;;10.30;9.50;;;;;;;;;;5124021;27;24457;-59
2021/09/26 05:03:45;;;;;;;10.35;9.57;;;;;;;;;;5121033;27;24435;-59
2021/09/26 05:06:11;;;;;;;10.00;9.20;;;;;;;;;;5128658;27;24795;-59
2021/09/26 05:08:37;;;;;;;10.00;9.30;;;;;;;;;;5123189;27;24452;-59
2021/09/26 05:11:02;;;;;;;10.30;9.50;;;;;;;;;;5118740;27;24461;-59
2021/09/26 05:13:27;;;;;;;9.60;8.90;;;;;;;;;;5112686;27;24956;-59
2021/09/26 05:15:52;;;;;;;9.20;8.50;;;;;;;;;;5124658;27;24573;-59
2021/09/26 05:18:17;;;;;;;9.88;9.18;;;;;;;;;;5128088;27;24416;-59
2021/09/26 05:20:43;;;;;;;9.20;8.50;;;;;;;;;;5127836;27;24421;-59
2021/09/26 05:23:08;;;;;;;9.10;8.50;;;;;;;;;;5121112;27;24452;-59
2021/09/26 05:25:33;;;;;;;9.70;9.00;;;;;;;;;;5122913;27;24577;-59
2021/09/26 05:28:00;;;;;;;9.50;8.80;;;;;;;;;;5122721;27;24413;-59
2021/09/26 05:30:26;;;;;;;9.53;8.83;;;;;;;;;;5112933;27;24796;-59
2021/09/26 05:32:51;;;;;;;9.68;8.98;;;;;;;;;;5127363;27;24493;-59
2021/09/26 05:35:16;;;;;;;9.15;8.55;;;;;;;;;;5126762;27;25081;-60
2021/09/26 05:37:41;;;;;;;9.00;8.40;;;;;;;;;;5128263;27;24392;-59
2021/09/26 05:40:07;;;;;;;10.60;9.90;;;;;;;;;;5127706;27;24850;-59
2021/09/26 05:42:33;;;;;;;8.90;8.20;;;;;;;;;;5122600;27;24421;-59
2021/09/26 05:44:58;;;;;;;9.27;8.57;;;;;;;;;;5120063;27;24587;-59
2021/09/26 05:47:23;;;;;;;9.80;9.00;;;;;;;;;;5120573;27;24505;-59
2021/09/26 05:49:49;;;;;;;10.85;9.95;;;;;;;;;;5117020;27;24828;-60
2021/09/26 05:52:14;;;;;;;10.27;9.45;;;;;;;;;;5114089;27;24812;-59
2021/09/26 05:54:40;;;;;;;10.27;9.57;;;;;;;;;;5117941;27;24413;-60
2021/09/26 05:57:05;;;;;;;10.27;9.47;;;;;;;;;;5125042;27;24397;-60
2021/09/26 05:59:36;;;;;;;8.40;7.80;;;;;;;;;;5120507;27;24769;-60
2021/09/26 06:02:01;;;;;;;8.80;8.10;;;;;;;;;;5112342;27;24406;-59
2021/09/26 06:04:26;;;;;;;9.53;8.83;;;;;;;;;;5126097;27;24424;-60
2021/09/26 06:06:51;;;;;;;8.88;8.20;;;;;;;;;;5124938;27;24423;-60
2021/09/26 06:09:16;;;;;;;8.90;8.20;;;;;;;;;;5117949;27;24980;-60
2021/09/26 06:11:41;;;;;;;8.07;7.47;;;;;;;;;;5122799;27;24502;-60
2021/09/26 06:14:07;;;;;;;8.20;7.50;;;;;;;;;;5119348;27;24412;-60
2021/09/26 06:16:32;;;;;;;8.70;8.00;;;;;;;;;;5118907;27;25068;-60
2021/09/26 06:18:57;;;;;;;8.30;7.70;;;;;;;;;;5125382;27;24418;-60
2021/09/26 06:21:22;;;;;;;9.02;8.38;;;;;;;;;;5121237;27;24424;-59
2021/09/26 06:23:47;;;;;;;10.02;9.30;;;;;;;;;;5119081;27;24432;-60
2021/09/26 06:26:14;;;;;;;8.65;8.05;;;;;;;;;;5116719;27;24442;-60
2021/09/26 06:28:39;;;;;;;10.35;9.45;;;;;;;;;;5115517;27;24990;-60
2021/09/26 06:31:04;;;;;;;9.43;8.73;;;;;;;;;;5112414;27;24498;-61
2021/09/26 06:33:29;;;;;;;10.70;9.80;;;;;;;;;;5109561;28;24873;-61
2021/09/26 06:35:54;;;;;;;9.10;8.40;;;;;;;;;;5108771;28;24463;-60
2021/09/26 06:38:19;;;;;;;10.03;9.30;;;;;;;;;;5104602;28;25056;-61
2021/09/26 06:40:45;;;;;;;10.15;9.40;;;;;;;;;;5105136;28;24417;-61
2021/09/26 06:43:12;;;;;;;8.57;7.97;;;;;;;;;;5122464;28;24396;-61
2021/09/26 06:45:37;;;;;;;7.97;7.38;;;;;;;;;;5112790;28;24413;-60
2021/09/26 06:48:03;;;;;;;7.57;7.07;;;;;;;;;;5116989;28;24417;-61
2021/09/26 06:50:28;;;;;;;8.87;8.17;;;;;;;;;;5118542;28;24474;-61
2021/09/26 06:52:53;;;;;;;8.60;8.00;;;;;;;;;;5116143;28;24447;-61
2021/09/26 06:55:18;;;;;;;9.70;8.90;;;;;;;;;;5120193;27;24409;-61
2021/09/26 06:57:43;;;;;;;9.00;8.30;;;;;;;;;;5125252;27;24461;-60
2021/09/26 07:00:10;;;;;;;7.80;7.30;;;;;;;;;;5125602;27;24408;-61
2021/09/26 07:02:35;;;;;;;7.60;7.00;;;;;;;;;;5118813;27;24749;-61
2021/09/26 07:05:00;;;;;;;6.80;6.30;;;;;;;;;;5120677;27;24796;-61
2021/09/26 07:07:25;;;;;;;7.80;7.30;;;;;;;;;;5124143;27;25019;-61
2021/09/26 07:09:51;;;;;;;8.00;7.30;;;;;;;;;;5123361;27;24875;-60
2021/09/26 07:12:16;;;;;;;7.20;6.70;;;;;;;;;;5106287;27;24546;-61
2021/09/26 07:14:42;;;;;;;7.33;6.83;;;;;;;;;;5120742;27;24413;-61
2021/09/26 07:17:08;;;;;;;8.10;7.40;;;;;;;;;;5124944;27;25024;-61
2021/09/26 07:19:33;;;;;;;8.80;8.10;;;;;;;;;;5119900;27;24985;-61
2021/09/26 07:21:58;;;;;;;7.97;7.45;;;;;;;;;;5126469;27;24413;-61
2021/09/26 07:24:23;;;;;;;7.80;7.30;;;;;;;;;;5123956;27;24594;-59
2021/09/26 07:26:48;;;;;;;7.40;6.90;;;;;;;;;;5116386;27;24762;-60
2021/09/26 07:29:13;;;;;;;6.65;6.25;;;;;;;;;;5120898;27;24554;-64
2021/09/26 07:31:38;;;;;;;8.87;8.17;;;;;;;;;;5117788;27;25051;-60
2021/09/26 07:34:04;;;;;;;8.40;7.70;;;;;;;;;;5124803;27;24439;-60
2021/09/26 07:36:29;;;;;;;7.60;7.00;;;;;;;;;;5117184;27;24980;-60
2021/09/26 07:38:54;;;;;;;7.50;7.00;;;;;;;;;;5122129;27;24758;-60
2021/09/26 07:41:20;;;;;;;6.73;6.23;;;;;;;;;;5112634;27;24421;-60
2021/09/26 07:43:45;;;;;;;7.10;6.60;;;;;;;;;;5113837;27;24812;-60
2021/09/26 07:46:10;;;;;;;7.70;7.10;;;;;;;;;;5121774;27;24417;-61
2021/09/26 07:48:35;;;;;;;6.77;6.27;;;;;;;;;;5124009;27;24425;-62
2021/09/26 07:51:01;;;;;;;7.00;6.60;;;;;;;;;;5117479;27;24433;-61
2021/09/26 07:53:26;;;;;;;6.70;6.30;;;;;;;;;;5117526;27;25054;-61
2021/09/26 07:55:52;;;;;;;7.20;6.60;;;;;;;;;;5124137;27;24412;-61
2021/09/26 07:58:17;;;;;;;7.28;6.78;;;;;;;;;;5121306;27;24428;-61
2021/09/26 08:00:43;;;;;;;7.03;6.53;;;;;;;;;;5122610;27;24417;-62
2021/09/26 08:03:08;;;;;;;7.40;6.80;;;;;;;;;;5125075;27;24504;-61
2021/09/26 08:05:33;;;;;;;5.90;5.50;;;;;;;;;;5121639;27;24489;-61
2021/09/26 08:07:58;;;;;;;6.43;6.03;;;;;;;;;;5118931;27;24666;-61
2021/09/26 08:10:24;;;;;;;7.10;6.60;;;;;;;;;;5121246;27;24421;-62
2021/09/26 08:12:49;;;;;;;6.80;6.30;;;;;;;;;;5120513;27;25089;-62
2021/09/26 08:15:14;;;;;;;7.00;6.50;;;;;;;;;;5113927;27;24474;-62
2021/09/26 08:17:39;;;;;;;7.20;6.70;;;;;;;;;;5109950;27;25024;-61
2021/09/26 08:20:05;;;;;;;6.90;6.40;;;;;;;;;;5110384;27;24554;-60
2021/09/26 08:22:31;;;;;;;6.50;6.10;;;;;;;;;;5121785;27;24522;-62
2021/09/26 08:24:57;;;;;;;6.70;5.97;;;;;;;;;;5124506;27;24545;-62
2021/09/26 08:27:23;;;;;;;6.60;6.20;;;;;;;;;;5125118;27;24401;-60
2021/09/26 08:29:49;;;;;;;6.60;6.10;;;;;;;;;;5122694;27;24454;-62
2021/09/26 08:32:14;;;;;;;6.67;6.23;;;;;;;;;;5119621;27;24828;-61
2021/09/26 08:34:39;;;;;;;6.73;6.13;;;;;;;;;;5121152;27;24884;-61
2021/09/26 08:37:04;;;;;;;6.43;5.93;;;;;;;;;;5125072;27;24821;-61
2021/09/26 08:39:29;;;;;;;6.40;5.90;;;;;;;;;;5122720;27;24453;-62
2021/09/26 08:41:55;;;;;;;6.85;6.30;;;;;;;;;;5122996;27;24936;-61
2021/09/26 08:44:24;;;;;;;6.60;6.10;;;;;;;;;;5120583;27;24409;-61
2021/09/26 08:46:50;;;;;;;6.93;6.43;;;;;;;;;;5122450;27;24424;-60
2021/09/26 08:49:16;;;;;;;6.63;6.13;;;;;;;;;;5124370;27;24416;-61
2021/09/26 08:51:43;;;;;;;6.60;6.10;;;;;;;;;;5122017;27;24448;-61
2021/09/26 08:54:08;;;;;;;6.30;5.90;;;;;;;;;;5118839;27;24441;-61
2021/09/26 08:56:33;;;;;;;6.10;5.70;;;;;;;;;;5118492;27;24490;-61
2021/09/26 08:58:59;;;;;;;6.07;5.57;;;;;;;;;;5124001;27;24496;-60
2021/09/26 09:01:26;;;;;;;6.68;6.18;;;;;;;;;;5124552;27;24462;-61
2021/09/26 09:03:51;;;;;;;5.40;4.90;;;;;;;;;;5123682;27;24476;-61
2021/09/26 09:06:17;;;;;;;6.32;5.82;;;;;;;;;;5123572;27;24991;-60
2021/09/26 09:08:42;;;;;;;6.37;5.83;;;;;;;;;;5122566;27;24404;-63
2021/09/26 09:11:08;;;;;;;5.70;5.30;;;;;;;;;;5118414;27;24501;-62
2021/09/26 09:13:33;;;;;;;5.90;5.40;;;;;;;;;;5117626;27;24559;-62
2021/09/26 09:16:00;;;;;;;5.10;4.80;;;;;;;;;;5122198;27;24492;-61
2021/09/26 09:18:34;;;;;;;6.20;5.70;;;;;;;;;;5121288;27;24422;-60
2021/09/26 09:21:00;;;;;;;5.90;5.50;;;;;;;;;;5122219;27;24490;-63
2021/09/26 09:23:25;;;;;;;5.13;4.83;;;;;;;;;;5118992;27;25087;-64
2021/09/26 09:25:52;;;;;;;5.80;5.40;;;;;;;;;;5120591;27;24437;-63
2021/09/26 09:28:18;;;;;;;5.80;5.40;;;;;;;;;;5124108;27;24705;-62
2021/09/26 09:30:59;;;;;;;5.88;5.47;;;;;;;;;;5121560;27;24447;-62
2021/09/26 09:33:35;;;;;;;5.90;5.40;;;;;;;;;;5117623;27;24441;-63
2021/09/26 09:36:00;;;;;;;5.80;5.40;;;;;;;;;;5119965;27;24389;-62
2021/09/26 09:38:28;;;;;;;5.63;5.22;;;;;;;;;;5122175;27;24458;-63
2021/09/26 09:40:54;;;;;;;5.40;5.00;;;;;;;;;;5123852;27;24936;-62
2021/09/26 09:43:20;;;;;;;5.80;5.20;;;;;;;;;;5118255;27;24460;-61
2021/09/26 09:45:54;;;;;;;6.00;5.60;;;;;;;;;;5098426;27;25182;-61
2021/09/26 09:48:20;;;;;;;6.18;5.68;;;;;;;;;;5100931;28;24415;-61
2021/09/26 09:50:51;;;;;;;5.85;5.45;;;;;;;;;;5103926;27;24532;-62
2021/09/26 09:53:34;;;;;;;5.70;5.30;;;;;;;;;;5123555;27;24401;-63
2021/09/26 09:56:02;;;;;;;5.40;5.00;;;;;;;;;;5101473;27;24382;-61
2021/09/26 09:58:31;;;;;;;5.85;5.25;;;;;;;;;;5119646;27;24983;-62
2021/09/26 10:00:57;;;;;;;5.72;5.22;;;;;;;;;;5123024;27;24405;-62
2021/09/26 10:03:35;;;;;;;5.70;5.30;;;;;;;;;;5122902;27;24493;-62
2021/09/26 10:06:02;;;;;;;7.03;5.60;;;;;;;;;;5116995;27;24417;-61
2021/09/26 10:08:33;;;;;;;5.60;5.20;;;;;;;;;;5118975;27;24413;-62
2021/09/26 10:11:08;;;;;;;5.00;4.70;;;;;;;;;;5122740;27;24892;-62
2021/09/26 10:13:36;;;;;;;5.47;4.97;;;;;;;;;;5122976;27;24404;-62
2021/09/26 10:16:02;;;;;;;5.50;5.10;;;;;;;;;;5118365;27;24433;-60
2021/09/26 10:18:29;;;;;;;5.45;5.05;;;;;;;;;;5117194;27;24726;-61
2021/09/26 10:20:54;;;;;;;5.50;5.10;;;;;;;;;;5118650;27;24512;-61
2021/09/26 10:23:20;;;;;;;5.50;5.00;;;;;;;;;;5118213;27;24558;-61
2021/09/26 10:25:45;;;;;;;5.30;4.90;;;;;;;;;;5121968;27;25163;-61
2021/09/26 10:28:11;;;;;;;6.30;5.70;;;;;;;;;;5122596;27;24432;-61
2021/09/26 10:30:36;;;;;;;5.55;5.15;;;;;;;;;;5118632;27;24560;-61
2021/09/26 10:33:02;;;;;;;4.90;4.50;;;;;;;;;;5100115;27;24469;-61
2021/09/26 10:35:27;;;;;;;6.10;5.60;;;;;;;;;;5116944;28;24472;-61
2021/09/26 10:37:53;;;;;;;5.07;4.70;;;;;;;;;;5122933;28;24477;-61
2021/09/26 10:40:19;;;;;;;5.45;5.10;;;;;;;;;;5122665;28;24409;-61
2021/09/26 10:42:44;;;;;;;6.28;5.70;;;;;;;;;;5118275;28;24444;-61
2021/09/26 10:45:10;;;;;;;5.03;4.63;;;;;;;;;;5117015;28;24412;-60
2021/09/26 10:47:36;;;;;;;5.70;5.30;;;;;;;;;;5119405;28;24818;-60
2021/09/26 10:50:02;;;;;;;5.95;5.55;;;;;;;;;;5122832;28;24453;-60
2021/09/26 10:52:27;;;;;;;5.53;5.13;;;;;;;;;;5122235;28;24489;-61
2021/09/26 10:54:53;;;;;;;5.90;5.40;;;;;;;;;;5120497;27;24760;-60
2021/09/26 10:57:20;;;;;;;4.60;4.30;;;;;;;;;;5117223;27;24420;-62
2021/09/26 10:59:51;;;;;;;5.20;4.80;;;;;;;;;;5117567;28;24460;-61
2021/09/26 11:02:32;;;;;;;5.15;4.75;;;;;;;;;;5119017;28;24409;-61
2021/09/26 11:04:58;;;;;;;5.30;4.90;;;;;;;;;;5122770;28;24516;-61
2021/09/26 11:07:27;;;;;;;5.43;5.03;;;;;;;;;;5121811;27;24765;-62
2021/09/26 11:09:53;;;;;;;4.80;4.50;;;;;;;;;;5118103;28;24412;-61
2021/09/26 11:12:37;;;;;;;5.32;5.00;;;;;;;;;;5118254;28;24585;-62
2021/09/26 11:15:04;;;;;;;4.90;4.60;;;;;;;;;;5108271;28;24423;-62
2021/09/26 11:17:45;;;;;;;4.80;4.50;;;;;;;;;;5122051;27;24439;-61
2021/09/26 11:20:12;;;;;;;5.45;5.05;;;;;;;;;;5122660;28;24476;-61
2021/09/26 11:22:37;;;;;;;5.35;4.85;;;;;;;;;;5125834;28;24546;-61
2021/09/26 11:25:03;;;;;;;4.83;4.53;;;;;;;;;;5124258;27;24408;-62
2021/09/26 11:27:33;;;;;;;4.97;4.68;;;;;;;;;;5123467;28;24597;-61
2021/09/26 11:30:01;;;;;;;4.75;4.45;;;;;;;;;;5124227;28;24417;-62
2021/09/26 11:32:28;;;;;;;5.00;4.60;;;;;;;;;;5125734;28;24413;-60
2021/09/26 11:34:55;;;;;;;5.10;4.70;;;;;;;;;;5124062;28;24437;-60
2021/09/26 11:37:35;;;;;;;4.90;4.50;;;;;;;;;;5124963;28;24511;-61
2021/09/26 11:40:02;;;;;;;4.50;4.20;;;;;;;;;;5124145;28;24533;-61
2021/09/26 11:42:29;;;;;;;5.03;4.63;;;;;;;;;;5125393;27;24531;-61
2021/09/26 11:44:55;;;;;;;4.30;4.00;;;;;;;;;;5126419;27;24440;-61
2021/09/26 11:47:20;;;;;;;4.90;4.60;;;;;;;;;;5128601;27;24450;-60
2021/09/26 11:49:45;;;;;;;3.90;3.60;;;;;;;;;;5127023;27;24524;-61
2021/09/26 11:52:11;;;;;;;4.85;4.38;;;;;;;;;;5125959;27;24413;-61
2021/09/26 11:54:36;;;;;;;4.50;3.95;;;;;;;;;;5109225;27;24433;-61
2021/09/26 11:57:01;;;;;;;3.90;3.70;;;;;;;;;;5125092;27;24417;-61
2021/09/26 11:59:35;;;;;;;4.00;3.80;;;;;;;;;;5126418;27;24416;-59
2021/09/26 12:02:09;;;;;;;4.20;3.90;;;;;;;;;;5123947;27;24512;-62
2021/09/26 12:04:34;;;;;;;4.27;3.90;;;;;;;;;;5122717;27;24482;-60
2021/09/26 12:07:00;;;;;;;4.17;3.83;;;;;;;;;;5123360;27;24987;-60
2021/09/26 12:09:45;;;;;;;3.80;3.50;;;;;;;;;;5122888;27;25132;-60
2021/09/26 12:12:11;;;;;;;4.13;3.72;;;;;;;;;;5114034;27;24493;-60
2021/09/26 12:14:38;;;;;;;3.83;3.53;;;;;;;;;;5117302;27;24443;-61
2021/09/26 12:17:04;;;;;;;4.03;3.72;;;;;;;;;;5119516;27;24426;-60
2021/09/26 12:19:29;;;;;;;3.92;3.63;;;;;;;;;;5111310;27;24826;-61
2021/09/26 12:21:59;;;;;;;3.50;3.30;;;;;;;;;;5120116;27;24512;-60
2021/09/26 12:24:29;;;;;;;3.60;3.40;;;;;;;;;;5123282;27;24396;-61
2021/09/26 12:26:54;;;;;;;3.37;3.07;;;;;;;;;;5123838;27;24425;-60
2021/09/26 12:29:27;;;;;;;4.30;4.00;;;;;;;;;;5125035;27;25174;-61
2021/09/26 12:31:55;;;;;;;3.30;3.10;;;;;;;;;;5118054;27;24447;-61
2021/09/26 12:34:27;;;;;;;4.32;3.92;;;;;;;;;;5119176;27;24849;-61
2021/09/26 12:36:52;;;;;;;3.88;3.60;;;;;;;;;;5119693;27;24778;-60
2021/09/26 12:39:20;;;;;;;3.67;3.37;;;;;;;;;;5124998;27;24955;-61
2021/09/26 12:41:50;;;;;;;4.37;4.07;;;;;;;;;;5122447;27;24448;-61
2021/09/26 12:44:22;;;;;;;3.50;3.20;;;;;;;;;;5124429;27;24417;-62
2021/09/26 12:46:47;;;;;;;3.85;3.55;;;;;;;;;;5122039;27;24749;-62
2021/09/26 12:49:14;;;;;;;4.10;3.80;;;;;;;;;;5118957;27;24417;-62
2021/09/26 12:51:47;;;;;;;3.50;3.30;;;;;;;;;;5117575;27;24432;-62
2021/09/26 12:54:12;;;;;;;3.80;3.50;;;;;;;;;;5121838;27;24550;-61
2021/09/26 12:56:40;;;;;;;3.97;3.57;;;;;;;;;;5122365;27;24520;-61
2021/09/26 12:59:24;;;;;;;4.07;3.80;;;;;;;;;;5120930;27;24460;-62
2021/09/26 13:02:08;;;;;;;4.40;4.00;;;;;;;;;;5115067;27;24470;-62
2021/09/26 13:04:33;;;;;;;3.80;3.60;;;;;;;;;;5115010;27;24731;-62
2021/09/26 13:06:59;;;;;;;3.40;3.20;;;;;;;;;;5118047;27;24745;-61
2021/09/26 13:09:43;;;;;;;4.13;3.83;;;;;;;;;;5123298;27;24868;-62
2021/09/26 13:12:26;;;;;;;3.60;3.40;;;;;;;;;;5118387;27;24413;-62
2021/09/26 13:15:10;;;;;;;4.28;3.90;;;;;;;;;;5119941;27;24655;-61
2021/09/26 13:17:36;;;;;;;4.07;3.78;;;;;;;;;;5110129;27;24448;-61
2021/09/26 13:20:33;;;;;;;4.50;4.20;;;;;;;;;;5122306;27;24525;-61
2021/09/26 13:23:17;;;;;;;4.20;3.90;;;;;;;;;;5070041;27;24428;-62
2021/09/26 13:25:42;;;;;;;3.72;3.42;;;;;;;;;;5115859;27;25261;-62
2021/09/26 13:28:13;;;;;;;4.00;3.70;;;;;;;;;;5118355;27;24396;-61
2021/09/26 13:30:39;;;;;;;4.15;3.95;;;;;;;;;;5112610;27;24429;-60
2021/09/26 13:33:22;;;;;;;3.90;3.70;;;;;;;;;;5121870;27;24440;-61
2021/09/26 13:35:48;;;;;;;3.90;3.60;;;;;;;;;;5120280;27;24413;-60
2021/09/26 13:38:13;;;;;;;4.50;4.20;;;;;;;;;;5123926;27;24373;-60
2021/09/26 13:40:41;;;;;;;4.30;4.00;;;;;;;;;;5118288;27;25307;-60
2021/09/26 13:43:07;;;;;;;4.20;3.90;;;;;;;;;;5120114;27;24473;-61
2021/09/26 13:45:33;;;;;;;4.28;3.97;;;;;;;;;;5114816;27;24515;-60
2021/09/26 13:47:58;;;;;;;4.70;4.40;;;;;;;;;;5121317;27;24658;-60
2021/09/26 13:50:23;;;;;;;5.10;4.70;;;;;;;;;;5120694;27;24469;-60
2021/09/26 13:52:48;;;;;;;4.50;4.20;;;;;;;;;;5117483;27;24457;-60
2021/09/26 13:55:14;;;;;;;5.03;4.73;;;;;;;;;;5115695;27;24466;-60
2021/09/26 13:57:40;;;;;;;4.35;4.05;;;;;;;;;;5120855;27;24974;-60
2021/09/26 14:00:07;;;;;;;5.37;5.00;;;;;;;;;;5120455;27;24530;-63
2021/09/26 14:02:32;;;;;;;4.90;4.50;;;;;;;;;;5123269;27;24482;-61
2021/09/26 14:04:57;;;;;;;4.57;4.27;;;;;;;;;;5119908;27;25109;-61
2021/09/26 14:07:22;;;;;;;5.47;5.07;;;;;;;;;;5118607;27;24413;-60
2021/09/26 14:09:47;;;;;;;5.70;5.30;;;;;;;;;;5116618;27;24733;-61
2021/09/26 14:12:14;;;;;;;5.72;5.32;;;;;;;;;;5116865;27;24427;-60
2021/09/26 14:14:39;;;;;;;5.80;5.30;;;;;;;;;;5118998;27;24413;-60
2021/09/26 14:17:06;;;;;;;5.22;4.82;;;;;;;;;;5116042;27;24420;-60
2021/09/26 14:19:32;;;;;;;5.20;4.90;;;;;;;;;;5117367;27;24428;-60
2021/09/26 14:21:57;;;;;;;5.90;5.40;;;;;;;;;;5119661;27;24860;-61
2021/09/26 14:24:23;;;;;;;4.70;4.40;;;;;;;;;;5122160;27;24525;-60
2021/09/26 14:26:49;;;;;;;5.47;5.07;;;;;;;;;;5120005;27;25005;-60
2021/09/26 14:29:14;;;;;;;5.00;4.70;;;;;;;;;;5118571;27;24512;-60
2021/09/26 14:31:39;;;;;;;4.93;4.63;;;;;;;;;;5115247;27;25048;-61
2021/09/26 14:34:04;;;;;;;5.60;5.30;;;;;;;;;;5116539;27;24438;-61